Time;durP1;ratioP1;P1;durP2;ratioP2;P2;SDS_P1;SDS_P2;PMS_P1;PMS_P2;Temp;Humidity;BMP_temperature;BMP_pressure;BME280_temperature;BME280_humidity;BME280_pressure;Samples;Min_cycle;Max_cycle;Signal;HPM_P1;HPM_P2
2024/03/30 00:01:21;;;;;;;10.23;5.03;;;;;;;8.13;100.00;97055.06;5044909;28;20076;-82
2024/03/30 00:03:47;;;;;;;12.38;4.53;;;;;;;8.08;100.00;97046.03;5053327;28;20017;-80
2024/03/30 00:06:13;;;;;;;9.27;5.25;;;;;;;8.12;100.00;97069.59;5064396;28;20075;-81
2024/03/30 00:08:38;;;;;;;7.70;5.13;;;;;;;7.93;100.00;97040.25;5041350;28;20028;-83
2024/03/30 00:11:04;;;;;;;7.10;4.70;;;;;;;8.07;100.00;97060.56;5039932;28;20272;-84
2024/03/30 00:13:30;;;;;;;7.15;4.50;;;;;;;8.09;100.00;97067.31;5042168;28;20021;-84
2024/03/30 00:15:55;;;;;;;8.63;4.32;;;;;;;8.06;100.00;97054.31;5043877;28;20028;-84
2024/03/30 00:18:21;;;;;;;9.07;4.43;;;;;;;8.04;100.00;97055.59;5052451;28;20139;-83
2024/03/30 00:20:47;;;;;;;12.23;5.13;;;;;;;8.08;100.00;97060.31;5045561;28;20094;-82
2024/03/30 00:23:12;;;;;;;10.52;5.28;;;;;;;8.10;100.00;97066.28;5054854;28;20017;-83
2024/03/30 00:25:38;;;;;;;12.07;4.50;;;;;;;8.00;100.00;97049.06;5050747;28;20020;-84
2024/03/30 00:28:03;;;;;;;10.25;4.25;;;;;;;8.09;100.00;97047.66;5046129;28;20092;-84
2024/03/30 00:30:31;;;;;;;8.68;4.25;;;;;;;8.03;100.00;97046.72;5044277;28;20103;-83
2024/03/30 00:32:57;;;;;;;9.50;4.18;;;;;;;7.98;100.00;97038.50;5049211;28;20020;-84
2024/03/30 00:35:22;;;;;;;14.23;4.80;;;;;;;7.91;100.00;97048.53;5050441;28;20028;-83
2024/03/30 00:37:50;;;;;;;7.85;4.60;;;;;;;7.82;100.00;97036.47;5056818;28;20031;-84
2024/03/30 00:40:16;;;;;;;9.55;4.00;;;;;;;7.88;100.00;97051.69;5043214;28;20017;-83
2024/03/30 00:42:41;;;;;;;6.40;3.92;;;;;;;7.85;100.00;97049.47;5056052;28;20051;-84
2024/03/30 00:45:07;;;;;;;8.90;4.65;;;;;;;7.76;100.00;97042.78;5053860;28;20021;-83
2024/03/30 00:47:32;;;;;;;8.43;4.05;;;;;;;7.75;100.00;97065.34;5061466;28;20063;-84
2024/03/30 00:49:57;;;;;;;9.35;4.53;;;;;;;7.73;100.00;97043.22;5058400;28;20192;-84
2024/03/30 00:52:23;;;;;;;9.50;4.88;;;;;;;7.59;100.00;97038.00;5062781;28;20032;-84
2024/03/30 00:54:48;;;;;;;8.80;4.78;;;;;;;7.65;100.00;97053.25;5046147;28;20036;-83
2024/03/30 00:57:13;;;;;;;7.20;4.38;;;;;;;7.68;100.00;97044.72;5044577;28;20017;-84
2024/03/30 00:59:40;;;;;;;8.00;5.03;;;;;;;7.71;100.00;97048.84;5055835;28;20027;-84
2024/03/30 01:02:06;;;;;;;12.40;5.35;;;;;;;7.72;100.00;97053.16;5053243;28;20029;-84
2024/03/30 01:04:32;;;;;;;11.93;6.07;;;;;;;7.67;100.00;97031.50;5047738;28;20066;-84
2024/03/30 01:06:58;;;;;;;9.85;4.68;;;;;;;7.62;100.00;97031.34;5051059;28;20032;-84
2024/03/30 01:09:25;;;;;;;8.02;4.85;;;;;;;7.65;100.00;97042.50;5049551;28;20017;-82
2024/03/30 01:11:51;;;;;;;15.02;5.30;;;;;;;7.52;100.00;97014.94;5054445;28;20020;-84
2024/03/30 01:14:18;;;;;;;9.02;4.88;;;;;;;7.59;100.00;97021.03;5064531;28;20087;-84
2024/03/30 01:16:44;;;;;;;9.07;4.57;;;;;;;7.74;100.00;97026.03;5059083;28;20016;-84
2024/03/30 01:19:09;;;;;;;15.90;5.13;;;;;;;7.68;100.00;97028.59;5062713;28;20029;-83
2024/03/30 01:21:36;;;;;;;6.75;4.20;;;;;;;7.62;100.00;97018.75;5060678;28;20127;-84
2024/03/30 01:24:02;;;;;;;10.13;3.42;;;;;;;7.52;100.00;97018.47;5055573;28;20025;-84
2024/03/30 01:26:28;;;;;;;12.55;3.20;;;;;;;7.43;100.00;97022.50;5054667;28;20088;-84
2024/03/30 01:28:55;;;;;;;6.60;3.45;;;;;;;7.33;100.00;97014.16;5052274;28;20212;-84
2024/03/30 01:31:20;;;;;;;12.65;3.90;;;;;;;7.22;100.00;97019.22;5061580;28;20089;-82
2024/03/30 01:33:46;;;;;;;7.13;3.50;;;;;;;7.01;100.00;96996.31;5058054;28;20066;-84
2024/03/30 01:36:11;;;;;;;7.88;3.92;;;;;;;6.92;100.00;96970.00;5061293;28;20032;-84
2024/03/30 01:38:37;;;;;;;8.95;3.80;;;;;;;7.24;100.00;97022.53;5058449;28;20066;-84
2024/03/30 01:41:02;;;;;;;9.50;4.13;;;;;;;7.31;100.00;97010.84;5059681;28;20017;-82
2024/03/30 01:43:27;;;;;;;13.65;4.30;;;;;;;7.30;100.00;97006.53;5056018;28;20052;-83
2024/03/30 01:45:55;;;;;;;9.68;3.83;;;;;;;7.40;100.00;97006.81;5072525;28;20025;-83
2024/03/30 01:48:23;;;;;;;5.95;3.65;;;;;;;7.35;100.00;97007.50;5063524;28;20044;-84
2024/03/30 01:50:49;;;;;;;13.30;3.95;;;;;;;7.38;100.00;97006.22;5062084;28;20012;-84
2024/03/30 01:53:19;;;;;;;5.03;3.10;;;;;;;7.28;100.00;96979.03;5048952;28;20021;-83
2024/03/30 01:55:48;;;;;;;7.60;3.13;;;;;;;7.31;100.00;96986.66;5053988;28;20099;-84
2024/03/30 01:58:20;;;;;;;4.93;3.22;;;;;;;7.31;100.00;97006.31;5046870;28;20028;-84
2024/03/30 02:00:46;;;;;;;13.27;3.80;;;;;;;7.43;100.00;97014.44;5044547;28;20033;-84
2024/03/30 02:03:11;;;;;;;8.32;3.10;;;;;;;7.43;100.00;97009.06;5046841;28;20036;-83
2024/03/30 02:05:37;;;;;;;9.57;3.55;;;;;;;7.30;100.00;96987.69;5047369;28;20029;-84
2024/03/30 02:08:04;;;;;;;14.60;3.65;;;;;;;7.42;100.00;97002.84;5056729;28;20043;-83
2024/03/30 02:10:30;;;;;;;19.23;4.13;;;;;;;7.39;100.00;96994.44;5048395;28;20343;-84
2024/03/30 02:12:55;;;;;;;8.70;4.10;;;;;;;7.46;100.00;96995.94;5052793;28;20042;-82
2024/03/30 02:15:21;;;;;;;7.82;3.60;;;;;;;7.46;100.00;96998.63;5048267;28;20032;-84
2024/03/30 02:17:46;;;;;;;9.10;4.20;;;;;;;7.40;100.00;96987.97;5046701;28;20027;-84
2024/03/30 02:20:12;;;;;;;12.77;4.45;;;;;;;7.45;100.00;96996.19;5052000;28;20071;-81
2024/03/30 02:22:37;;;;;;;20.65;4.90;;;;;;;7.31;100.00;96965.97;5055392;28;20021;-82
2024/03/30 02:25:03;;;;;;;15.70;4.05;;;;;;;7.37;100.00;96973.13;5046006;28;20029;-82
2024/03/30 02:27:30;;;;;;;9.73;4.00;;;;;;;7.50;100.00;96993.66;5058447;28;20316;-83
2024/03/30 02:29:59;;;;;;;8.60;3.85;;;;;;;7.40;100.00;96990.69;5046876;28;20025;-83
2024/03/30 02:32:24;;;;;;;18.65;4.20;;;;;;;7.55;100.00;97001.84;5046020;28;20097;-83
2024/03/30 02:34:50;;;;;;;13.77;4.55;;;;;;;7.54;100.00;96991.31;5050024;28;20029;-83
2024/03/30 02:37:17;;;;;;;18.58;5.60;;;;;;;7.61;100.00;97000.94;5056094;28;20088;-83
2024/03/30 02:39:42;;;;;;;15.63;4.93;;;;;;;7.50;100.00;96990.94;5049950;28;20021;-83
2024/03/30 02:42:08;;;;;;;11.70;4.85;;;;;;;7.45;100.00;96977.38;5046994;28;20025;-83
2024/03/30 02:44:33;;;;;;;10.48;4.10;;;;;;;7.43;100.00;96982.16;5064397;28;20025;-84
2024/03/30 02:46:59;;;;;;;32.95;5.13;;;;;;;7.58;100.00;96989.81;5040066;28;20089;-83
2024/03/30 02:49:24;;;;;;;36.10;5.18;;;;;;;7.88;100.00;96981.69;5049750;28;20255;-84
2024/03/30 02:51:49;;;;;;;35.88;5.20;;;;;;;7.99;100.00;96970.13;5054796;28;20032;-84
2024/03/30 02:54:14;;;;;;;25.42;4.22;;;;;;;8.17;100.00;96971.09;5047553;28;20033;-84
2024/03/30 02:56:40;;;;;;;17.63;3.95;;;;;;;7.93;100.00;96930.66;5051214;28;20009;-84
2024/03/30 02:59:05;;;;;;;22.10;4.07;;;;;;;7.98;100.00;96946.94;5050481;28;20124;-83
2024/03/30 03:01:30;;;;;;;11.15;4.20;;;;;;;8.04;100.00;96961.34;5055538;28;20029;-83
2024/03/30 03:03:56;;;;;;;24.15;4.28;;;;;;;7.96;100.00;96964.38;5047083;28;20183;-84
2024/03/30 03:06:21;;;;;;;36.42;4.53;;;;;;;8.01;100.00;96969.88;5042971;28;20325;-83
2024/03/30 03:08:46;;;;;;;37.40;6.53;;;;;;;8.09;100.00;96956.91;5049230;28;20104;-83
2024/03/30 03:11:12;;;;;;;36.83;4.97;;;;;;;8.23;100.00;96948.63;5052759;28;20216;-82
2024/03/30 03:13:37;;;;;;;45.28;4.97;;;;;;;8.47;100.00;96952.97;5063070;28;20013;-82
2024/03/30 03:16:06;;;;;;;43.28;5.85;;;;;;;8.61;100.00;96940.06;5061019;28;20079;-82
2024/03/30 03:18:31;;;;;;;24.20;3.85;;;;;;;8.44;100.00;96898.72;5040645;28;20017;-83
2024/03/30 03:20:57;;;;;;;17.48;3.75;;;;;;;8.48;100.00;96924.94;5072802;28;20052;-82
2024/03/30 03:23:25;;;;;;;17.52;4.10;;;;;;;8.37;100.00;96928.44;5063185;28;20320;-82
2024/03/30 03:25:50;;;;;;;23.92;5.03;;;;;;;8.40;100.00;96946.88;5063224;28;20017;-82
2024/03/30 03:28:16;;;;;;;32.47;5.80;;;;;;;8.31;100.00;96934.78;5051225;28;20397;-83
2024/03/30 03:30:41;;;;;;;28.98;4.32;;;;;;;8.23;100.00;96935.16;5054426;28;20024;-83
2024/03/30 03:33:06;;;;;;;39.78;4.22;;;;;;;8.23;100.00;96927.06;5054309;28;20255;-83
2024/03/30 03:35:32;;;;;;;36.63;5.00;;;;;;;8.47;100.00;96933.28;5048335;28;20017;-83
2024/03/30 03:37:57;;;;;;;31.92;4.07;;;;;;;8.54;100.00;96891.69;5053183;28;20016;-82
2024/03/30 03:40:22;;;;;;;45.05;4.78;;;;;;;8.54;100.00;96877.38;5060703;28;20183;-82
2024/03/30 03:42:48;;;;;;;38.85;5.97;;;;;;;8.90;100.00;96891.56;5070758;28;20286;-84
2024/03/30 03:45:13;;;;;;;35.47;4.53;;;;;;;8.82;100.00;96887.38;5051913;28;20028;-83
2024/03/30 03:47:38;;;;;;;36.00;5.53;;;;;;;8.88;100.00;96904.47;5052582;28;20043;-82
2024/03/30 03:50:03;;;;;;;43.58;4.45;;;;;;;8.80;100.00;96867.09;5055002;28;20026;-82
2024/03/30 03:52:29;;;;;;;48.65;4.75;;;;;;;9.24;100.00;96854.72;5048186;28;20336;-82
2024/03/30 03:54:54;;;;;;;50.88;5.93;;;;;;;9.54;100.00;96856.34;5071981;28;20031;-82
2024/03/30 03:57:19;;;;;;;48.40;4.15;;;;;;;9.72;100.00;96863.34;5053764;28;20028;-82
2024/03/30 03:59:45;;;;;;;34.45;4.53;;;;;;;9.69;100.00;96861.97;5051145;28;20016;-83
2024/03/30 04:02:10;;;;;;;34.25;4.68;;;;;;;9.50;100.00;96874.88;5045052;28;20217;-82
2024/03/30 04:04:35;;;;;;;42.13;5.20;;;;;;;9.47;100.00;96882.66;5041378;28;20048;-80
2024/03/30 04:07:00;;;;;;;41.85;4.60;;;;;;;9.28;100.00;96860.47;5049940;28;20421;-82
2024/03/30 04:09:26;;;;;;;41.30;4.32;;;;;;;9.23;100.00;96868.47;5056597;28;20021;-82
2024/03/30 04:11:51;;;;;;;42.53;4.20;;;;;;;9.15;100.00;96883.97;5039335;28;20037;-81
2024/03/30 04:14:16;;;;;;;44.05;4.50;;;;;;;9.05;100.00;96872.19;5046756;28;20580;-82
2024/03/30 04:16:42;;;;;;;39.80;4.45;;;;;;;8.99;100.00;96898.25;5042909;28;20024;-81
2024/03/30 04:19:07;;;;;;;31.40;4.57;;;;;;;8.94;100.00;96917.03;5058101;28;20035;-82
2024/03/30 04:21:32;;;;;;;43.20;5.85;;;;;;;8.61;100.00;96879.94;5047861;28;20308;-81
2024/03/30 04:23:57;;;;;;;40.15;4.78;;;;;;;8.70;100.00;96910.88;5049799;28;20036;-81
2024/03/30 04:26:23;;;;;;;40.45;4.72;;;;;;;8.73;100.00;96915.78;5053403;28;20020;-81
2024/03/30 04:28:48;;;;;;;45.05;4.03;;;;;;;8.69;100.00;96904.63;5054320;28;20020;-81
2024/03/30 04:31:13;;;;;;;47.42;5.28;;;;;;;8.69;100.00;96901.94;5050024;28;20052;-81
2024/03/30 04:33:39;;;;;;;40.40;4.82;;;;;;;8.60;100.00;96883.69;5045702;28;20021;-82
2024/03/30 04:36:07;;;;;;;49.05;4.35;;;;;;;8.84;100.00;96914.94;5049013;28;20224;-81
2024/03/30 04:38:34;;;;;;;35.00;5.00;;;;;;;8.81;100.00;96896.53;5051236;28;20024;-80
2024/03/30 04:41:07;;;;;;;18.75;3.97;;;;;;;8.67;100.00;96900.53;5049150;28;20505;-83
2024/03/30 04:43:34;;;;;;;25.27;3.75;;;;;;;8.49;100.00;96921.22;5052828;28;20021;-83
2024/03/30 04:46:00;;;;;;;32.58;3.17;;;;;;;8.42;100.00;96925.91;5053247;28;20112;-83
2024/03/30 04:48:27;;;;;;;24.00;3.70;;;;;;;8.42;100.00;96923.22;5051181;28;20028;-83
2024/03/30 04:50:53;;;;;;;30.52;4.55;;;;;;;8.45;100.00;96917.34;5053358;28;20021;-82
2024/03/30 04:53:21;;;;;;;31.52;4.28;;;;;;;8.67;100.00;96928.34;5049628;28;20041;-83
2024/03/30 04:55:50;;;;;;;34.05;4.28;;;;;;;8.84;100.00;96923.03;5045871;28;20194;-83
2024/03/30 04:58:20;;;;;;;33.47;4.13;;;;;;;8.90;100.00;96935.53;5040757;28;20025;-82
2024/03/30 05:00:46;;;;;;;28.52;4.57;;;;;;;8.78;100.00;96935.59;5047849;28;20028;-83
2024/03/30 05:03:11;;;;;;;26.58;4.10;;;;;;;8.74;100.00;96945.19;5050942;28;20020;-84
2024/03/30 05:05:36;;;;;;;32.85;4.57;;;;;;;8.49;100.00;96945.47;5052409;28;20020;-83
2024/03/30 05:08:02;;;;;;;41.08;4.28;;;;;;;8.25;100.00;96936.56;5049366;28;20024;-84
2024/03/30 05:10:27;;;;;;;36.10;4.78;;;;;;;8.16;100.00;96929.88;5061301;28;20021;-84
2024/03/30 05:12:52;;;;;;;29.58;3.60;;;;;;;7.94;100.00;96910.78;5054850;28;20107;-83
2024/03/30 05:15:17;;;;;;;37.00;4.35;;;;;;;8.03;100.00;96936.28;5058538;28;20021;-84
2024/03/30 05:17:43;;;;;;;28.88;3.38;;;;;;;8.00;100.00;96944.03;5061384;28;20275;-84
2024/03/30 05:22:52;;;;;;;35.35;4.85;;;;;;;7.82;100.00;96942.25;5068529;28;20047;-84
2024/03/30 05:25:18;;;;;;;30.52;4.50;;;;;;;7.90;100.00;96936.50;5058117;28;20323;-84
2024/03/30 05:27:43;;;;;;;28.08;4.80;;;;;;;8.03;100.00;96944.38;5064648;28;20025;-83
2024/03/30 05:30:09;;;;;;;26.65;4.40;;;;;;;8.24;100.00;96951.06;5056084;28;20196;-84
2024/03/30 05:32:34;;;;;;;25.55;3.88;;;;;;;8.47;100.00;96944.06;5048450;28;20031;-84
2024/03/30 05:35:00;;;;;;;26.98;3.92;;;;;;;8.74;100.00;96928.19;5057340;28;20044;-79
2024/03/30 05:37:25;;;;;;;34.80;4.07;;;;;;;9.04;100.00;96916.38;5060257;28;20027;-82
2024/03/30 05:39:51;;;;;;;30.55;3.53;;;;;;;9.43;100.00;96915.53;5036718;28;20041;-80
2024/03/30 05:42:16;;;;;;;39.20;3.42;;;;;;;9.72;100.00;96918.19;5046220;28;20029;-79
2024/03/30 05:44:46;;;;;;;40.95;4.70;;;;;;;10.03;100.00;96902.47;5043401;28;20021;-79
2024/03/30 05:47:11;;;;;;;36.45;4.25;;;;;;;10.43;100.00;96905.00;5065623;28;20231;-79
2024/03/30 05:49:37;;;;;;;33.78;4.53;;;;;;;11.09;100.00;96901.50;5048126;28;20048;-79
2024/03/30 05:52:02;;;;;;;27.75;3.85;;;;;;;11.61;100.00;96903.66;5052638;28;20098;-79
2024/03/30 05:54:27;;;;;;;31.40;4.45;;;;;;;12.40;100.00;96913.00;5073200;23;20375;-75
2024/03/30 05:56:53;;;;;;;34.30;3.80;;;;;;;12.89;100.00;96915.41;5064336;28;20025;-76
2024/03/30 05:59:18;;;;;;;31.73;4.35;;;;;;;13.28;100.00;96918.59;5062931;28;20028;-77
2024/03/30 06:01:43;;;;;;;28.70;4.45;;;;;;;13.53;100.00;96909.69;5071294;28;20025;-78
2024/03/30 06:04:09;;;;;;;38.22;4.40;;;;;;;14.06;100.00;96906.75;5054669;28;20029;-78
2024/03/30 06:06:34;;;;;;;28.23;4.18;;;;;;;14.60;100.00;96910.81;5069761;28;20071;-78
2024/03/30 06:08:59;;;;;;;32.80;3.97;;;;;;;15.36;100.00;96923.31;5065834;28;20316;-78
2024/03/30 06:11:25;;;;;;;39.67;4.38;;;;;;;15.81;100.00;96910.53;5069041;28;20051;-78
2024/03/30 06:13:50;;;;;;;31.00;4.57;;;;;;;16.47;100.00;96920.09;5071855;28;20017;-75
2024/03/30 06:16:16;;;;;;;38.83;4.35;;;;;;;17.02;100.00;96917.88;5067760;28;20036;-74
2024/03/30 06:18:41;;;;;;;30.17;4.47;;;;;;;16.82;100.00;96907.19;5068539;28;20032;-74
2024/03/30 06:21:06;;;;;;;28.05;4.55;;;;;;;17.19;100.00;96914.69;5068567;28;20070;-75
2024/03/30 06:23:31;;;;;;;33.50;4.78;;;;;;;17.32;99.97;96915.91;5073335;28;20060;-77
2024/03/30 06:25:57;;;;;;;31.58;4.78;;;;;;;16.43;99.26;96916.31;5068642;28;20074;-76
2024/03/30 06:28:23;;;;;;;29.30;4.43;;;;;;;15.59;100.00;96899.19;5065767;28;20065;-74
2024/03/30 06:30:49;;;;;;;42.58;5.65;;;;;;;15.78;100.00;96916.56;5061077;28;20075;-75
2024/03/30 06:33:15;;;;;;;33.17;4.50;;;;;;;16.08;100.00;96901.88;5067593;28;20043;-78
2024/03/30 06:35:40;;;;;;;37.17;4.63;;;;;;;16.82;89.02;96902.56;5064504;28;20028;-79
2024/03/30 06:38:05;;;;;;;33.65;3.83;;;;;;;17.01;79.77;96896.34;5066725;28;20020;-77
2024/03/30 06:46:01;;;;;;;37.33;3.92;;;;;;;19.45;69.37;96887.06;5068308;28;20375;-74
2024/03/30 06:48:26;;;;;;;33.97;3.47;;;;;;;19.53;68.57;96888.28;5068609;28;20037;-75
2024/03/30 06:50:57;;;;;;;32.08;3.70;;;;;;;19.37;69.97;96894.09;5068574;28;20367;-74
2024/03/30 06:53:25;;;;;;;28.55;3.08;;;;;;;19.00;73.90;96890.47;5066559;28;20339;-75
2024/03/30 06:55:51;;;;;;;23.13;3.17;;;;;;;18.44;76.77;96885.22;5062483;28;20016;-75
2024/03/30 06:58:17;;;;;;;28.77;3.70;;;;;;;18.19;74.97;96876.34;5067081;28;20281;-73
2024/03/30 07:00:43;;;;;;;29.15;3.60;;;;;;;17.94;77.86;96880.28;5062570;28;20092;-74
2024/03/30 07:03:08;;;;;;;32.85;4.57;;;;;;;17.40;96.38;96882.44;5068383;28;20092;-74
2024/03/30 07:05:34;;;;;;;32.05;4.93;;;;;;;16.35;100.00;96873.28;5065501;28;20044;-74
2024/03/30 07:07:59;;;;;;;35.30;4.25;;;;;;;15.64;100.00;96880.09;5064980;28;20040;-74
2024/03/30 07:10:25;;;;;;;30.45;3.63;;;;;;;15.31;100.00;96879.75;5067315;28;20323;-74
2024/03/30 07:12:54;;;;;;;29.33;4.13;;;;;;;14.79;100.00;96886.53;5053244;28;20038;-74
2024/03/30 07:15:19;;;;;;;;;;;;;;;14.24;100.00;96873.53;5054591;28;20044;-73
2024/03/30 07:17:44;;;;;;;29.67;4.40;;;;;;;13.81;100.00;96878.47;5058899;28;19944;-73
2024/03/30 07:20:10;;;;;;;21.38;3.22;;;;;;;13.70;100.00;96865.13;5055632;28;20333;-74
2024/03/30 07:22:35;;;;;;;36.50;4.20;;;;;;;13.84;100.00;96865.44;5052196;28;20029;-73
2024/03/30 07:25:00;;;;;;;30.88;3.72;;;;;;;14.14;100.00;96865.41;5059451;28;20047;-73
2024/03/30 07:27:26;;;;;;;33.40;3.30;;;;;;;14.41;100.00;96854.22;5059964;28;20028;-76
2024/03/30 07:29:51;;;;;;;28.02;3.08;;;;;;;14.65;97.25;96853.63;5056769;28;20245;-78
2024/03/30 07:32:17;;;;;;;28.85;3.75;;;;;;;14.68;97.09;96843.00;5053084;28;20024;-77
2024/03/30 07:34:47;;;;;;;19.58;2.78;;;;;;;14.93;99.65;96864.94;5076836;28;20008;-78
2024/03/30 07:37:13;;;;;;;37.63;3.72;;;;;;;14.52;100.00;96870.53;5058516;28;20221;-74
2024/03/30 07:39:40;;;;;;;32.08;5.13;;;;;;;13.96;100.00;96880.41;5059406;28;20037;-74
2024/03/30 07:42:05;;;;;;;33.90;3.83;;;;;;;13.73;100.00;96889.88;5059996;28;20100;-74
2024/03/30 07:44:33;;;;;;;40.53;4.57;;;;;;;13.40;100.00;96885.75;5068823;28;20025;-77
2024/03/30 07:46:59;;;;;;;24.38;3.00;;;;;;;13.39;100.00;96886.84;5062695;28;20096;-75
2024/03/30 07:49:24;;;;;;;26.17;3.50;;;;;;;13.42;100.00;96890.94;5050191;28;20106;-76
2024/03/30 07:51:51;;;;;;;37.45;4.53;;;;;;;13.58;100.00;96874.38;5056525;28;20220;-79
2024/03/30 07:54:17;;;;;;;33.22;3.20;;;;;;;13.91;100.00;96877.66;5068727;28;20020;-77
2024/03/30 07:56:55;;;;;;;18.15;3.35;;;;;;;14.25;100.00;96883.34;5054658;28;20317;-77
2024/03/30 07:59:21;;;;;;;31.23;3.95;;;;;;;14.49;96.74;96896.38;5061287;28;20078;-78
2024/03/30 08:01:46;;;;;;;26.48;3.53;;;;;;;14.64;89.38;96885.47;5061625;28;20021;-78
2024/03/30 08:04:11;;;;;;;30.88;3.53;;;;;;;14.84;86.78;96895.47;5067694;28;20220;-77
2024/03/30 08:06:36;;;;;;;23.75;3.30;;;;;;;15.03;82.87;96883.97;5061619;28;20259;-79
2024/03/30 08:09:02;;;;;;;24.98;2.97;;;;;;;15.20;81.04;96875.47;5056847;28;20029;-76
2024/03/30 08:11:27;;;;;;;32.58;3.58;;;;;;;15.38;82.06;96876.69;5060962;28;20035;-75
2024/03/30 08:13:53;;;;;;;35.25;5.85;;;;;;;15.22;85.44;96865.91;5057959;28;20333;-75
2024/03/30 08:16:18;;;;;;;42.50;6.78;;;;;;;15.22;86.53;96878.69;5060678;28;20083;-75
2024/03/30 08:18:44;;;;;;;46.30;6.63;;;;;;;15.08;91.73;96878.50;5063282;22;20124;-58
2024/03/30 08:21:10;;;;;;;34.67;6.75;;;;;;;14.98;92.10;96882.06;5059766;28;20069;-58
2024/03/30 08:23:37;;;;;;;35.50;5.20;;;;;;;14.87;96.87;96888.66;5039655;28;20068;-57
2024/03/30 08:26:03;;;;;;;31.77;4.50;;;;;;;14.84;97.79;96894.66;5062863;28;20024;-58
2024/03/30 08:28:28;;;;;;;23.20;4.93;;;;;;;14.77;100.00;96885.97;5070963;28;20023;-57
2024/03/30 08:30:53;;;;;;;23.20;4.10;;;;;;;14.57;100.00;96878.69;5064153;28;20031;-57
2024/03/30 08:33:19;;;;;;;28.90;3.60;;;;;;;14.36;100.00;96869.75;5072007;28;20063;-57
2024/03/30 08:35:54;;;;;;;32.60;4.30;;;;;;;14.23;100.00;96863.78;5074367;28;20520;-58
2024/03/30 08:38:21;;;;;;;22.20;4.38;;;;;;;14.17;100.00;96866.75;5065533;28;20024;-58
2024/03/30 08:40:48;;;;;;;25.35;2.78;;;;;;;14.19;100.00;96861.88;5071605;28;20070;-58
2024/03/30 08:43:16;;;;;;;25.25;3.38;;;;;;;14.34;100.00;96859.13;5074351;28;20354;-57
2024/03/30 08:45:42;;;;;;;25.40;3.53;;;;;;;14.41;100.00;96859.66;5076107;28;20025;-57
2024/03/30 08:48:13;;;;;;;26.13;4.78;;;;;;;14.43;100.00;96872.97;5073186;28;20380;-58
2024/03/30 08:50:39;;;;;;;30.45;3.33;;;;;;;14.32;100.00;96874.91;5064789;28;20427;-57
2024/03/30 08:53:09;;;;;;;32.80;3.63;;;;;;;14.22;100.00;96874.91;5054577;28;20047;-58
2024/03/30 08:55:35;;;;;;;37.17;4.90;;;;;;;13.94;100.00;96865.44;5076735;28;20056;-59
2024/03/30 08:58:03;;;;;;;29.60;4.93;;;;;;;13.77;100.00;96874.66;5081432;28;20083;-58
2024/03/30 09:00:29;;;;;;;23.83;3.25;;;;;;;13.79;100.00;96869.78;5075146;28;20021;-58
2024/03/30 09:02:55;;;;;;;19.52;3.33;;;;;;;13.96;100.00;96861.38;5085945;28;20039;-59
2024/03/30 09:05:26;;;;;;;31.98;4.95;;;;;;;14.30;100.00;96868.09;5077331;28;20466;-58
2024/03/30 09:07:52;;;;;;;25.88;2.70;;;;;;;14.46;100.00;96872.41;5080185;28;20029;-57
2024/03/30 09:10:20;;;;;;;24.48;4.53;;;;;;;14.36;100.00;96872.47;5057882;28;20449;-62
2024/03/30 09:12:46;;;;;;;33.65;4.65;;;;;;;14.25;100.00;96871.63;5061643;28;20115;-62
2024/03/30 09:15:11;;;;;;;28.48;4.30;;;;;;;14.29;100.00;96861.84;5085963;28;20108;-62
2024/03/30 09:17:36;;;;;;;28.85;4.28;;;;;;;14.16;100.00;96862.41;5080678;28;20027;-62
2024/03/30 09:20:02;;;;;;;33.33;4.07;;;;;;;14.17;100.00;96864.88;5075616;28;20152;-62
2024/03/30 09:22:27;;;;;;;25.33;3.83;;;;;;;14.17;100.00;96861.31;5075145;28;20040;-61
2024/03/30 09:24:54;;;;;;;34.75;4.63;;;;;;;14.21;100.00;96868.66;5083234;28;20028;-62
2024/03/30 09:27:20;;;;;;;22.55;3.20;;;;;;;14.34;100.00;96869.19;5078696;28;20036;-62
2024/03/30 09:29:46;;;;;;;23.75;3.08;;;;;;;14.35;100.00;96860.75;5087029;28;20060;-62
2024/03/30 09:32:11;;;;;;;24.10;3.20;;;;;;;14.36;100.00;96869.75;5079192;28;20056;-63
2024/03/30 09:34:37;;;;;;;24.17;3.70;;;;;;;14.47;100.00;96866.72;5081846;28;20416;-63
2024/03/30 09:37:07;;;;;;;20.45;2.90;;;;;;;14.56;100.00;96871.63;5078151;28;20035;-62
2024/03/30 09:39:39;;;;;;;36.75;3.97;;;;;;;14.54;100.00;96868.34;5075407;28;20554;-62
2024/03/30 09:42:07;;;;;;;27.75;3.65;;;;;;;14.64;100.00;96871.84;5080132;28;20051;-63
2024/03/30 09:44:36;;;;;;;29.70;4.00;;;;;;;14.73;100.00;96874.03;5072567;28;20106;-62
2024/03/30 09:47:03;;;;;;;42.05;3.80;;;;;;;14.81;100.00;96863.38;5082786;28;20031;-62
2024/03/30 09:49:32;;;;;;;29.63;3.65;;;;;;;14.92;100.00;96864.13;5075723;28;20032;-62
2024/03/30 09:52:04;;;;;;;27.10;3.40;;;;;;;15.01;100.00;96861.63;5066641;28;20112;-56
2024/03/30 09:54:30;;;;;;;26.58;3.90;;;;;;;14.97;100.00;96869.56;5070635;28;20056;-56
2024/03/30 09:56:57;;;;;;;29.00;3.13;;;;;;;15.01;100.00;96870.66;5075227;28;20024;-62
2024/03/30 09:59:23;;;;;;;38.10;4.10;;;;;;;15.05;100.00;96868.97;5091549;28;20033;-63
2024/03/30 10:01:48;;;;;;;26.40;3.42;;;;;;;14.86;100.00;96878.88;5078689;28;20031;-62
2024/03/30 10:04:13;;;;;;;32.30;3.42;;;;;;;14.74;100.00;96870.19;5078755;28;20103;-62
2024/03/30 10:06:45;;;;;;;21.00;3.30;;;;;;;14.59;100.00;96866.44;5074756;28;20361;-63
2024/03/30 10:09:14;;;;;;;27.00;3.67;;;;;;;14.51;100.00;96861.53;5075244;28;20028;-62
2024/03/30 10:11:41;;;;;;;30.25;3.75;;;;;;;14.50;100.00;96862.63;5074904;28;20494;-63
2024/03/30 10:14:22;;;;;;;40.15;6.10;;;;;;;14.31;100.00;96856.16;5077072;28;20064;-63
2024/03/30 10:16:47;;;;;;;41.33;6.20;;;;;;;14.15;100.00;96858.88;5070867;28;20028;-64
2024/03/30 10:19:14;;;;;;;34.70;6.10;;;;;;;14.13;100.00;96852.91;5077679;28;20021;-63
2024/03/30 10:21:42;;;;;;;33.35;5.53;;;;;;;14.20;100.00;96852.59;5083304;28;20020;-63
2024/03/30 10:24:09;;;;;;;30.83;5.05;;;;;;;14.36;100.00;96843.34;5078124;28;20033;-63
2024/03/30 10:26:41;;;;;;;39.15;5.50;;;;;;;14.53;100.00;96837.59;5076331;28;20024;-63
2024/03/30 10:29:09;;;;;;;29.27;5.03;;;;;;;14.76;100.00;96832.63;5059404;28;20156;-63
2024/03/30 10:31:38;;;;;;;33.03;4.90;;;;;;;15.17;100.00;96844.16;5085016;28;20027;-63
2024/03/30 10:34:04;;;;;;;21.15;4.38;;;;;;;15.63;100.00;96846.56;5084055;28;20455;-63
2024/03/30 10:36:29;;;;;;;30.83;5.72;;;;;;;16.10;100.00;96841.59;5056896;28;20056;-63
2024/03/30 10:38:58;;;;;;;30.08;4.50;;;;;;;16.60;100.00;96842.16;5068167;28;20024;-62
2024/03/30 10:41:27;;;;;;;31.83;4.45;;;;;;;17.15;100.00;96845.34;5071221;28;20024;-62
2024/03/30 10:43:53;;;;;;;31.40;3.45;;;;;;;17.65;100.00;96842.97;5084759;28;20040;-62
2024/03/30 10:46:19;;;;;;;27.48;4.10;;;;;;;17.96;100.00;96845.25;5072865;28;20081;-57
2024/03/30 10:48:44;;;;;;;28.98;4.55;;;;;;;17.97;100.00;96841.38;5061285;28;20478;-57
2024/03/30 10:51:10;;;;;;;29.45;4.95;;;;;;;18.40;100.00;96843.94;5083471;28;20388;-57
2024/03/30 10:53:36;;;;;;;35.65;5.82;;;;;;;18.49;100.00;96847.59;5074841;28;20047;-57
2024/03/30 10:56:01;;;;;;;28.02;4.00;;;;;;;18.66;100.00;96848.94;5061101;28;20036;-57
2024/03/30 10:58:27;;;;;;;23.23;3.67;;;;;;;18.92;100.00;96844.59;5075416;28;20027;-59
2024/03/30 11:00:54;;;;;;;29.83;4.13;;;;;;;18.98;100.00;96848.84;5078483;28;20078;-57
2024/03/30 11:03:29;;;;;;;34.33;4.50;;;;;;;18.99;100.00;96846.91;5070914;28;20461;-57
2024/03/30 11:05:55;;;;;;;34.38;5.18;;;;;;;18.94;100.00;96845.13;5068210;28;20036;-57
2024/03/30 11:08:21;;;;;;;19.35;3.90;;;;;;;18.85;100.00;96843.38;5070084;28;20036;-57
2024/03/30 11:10:46;;;;;;;18.65;3.90;;;;;;;18.93;100.00;96837.19;5079647;28;20028;-57
2024/03/30 11:13:12;;;;;;;32.63;4.78;;;;;;;18.90;100.00;96852.31;5083203;28;20356;-57
2024/03/30 11:15:41;;;;;;;33.85;4.32;;;;;;;19.05;100.00;96848.47;5070666;28;20115;-58
2024/03/30 11:18:12;;;;;;;;;;;;;;;19.07;100.00;96851.69;5081222;28;20020;-57
2024/03/30 11:20:45;;;;;;;25.35;4.82;;;;;;;19.29;100.00;96836.44;5069334;28;19973;-57
2024/03/30 11:23:22;;;;;;;23.60;3.90;;;;;;;19.39;100.00;96837.03;5079501;28;20107;-58
2024/03/30 11:25:50;;;;;;;33.72;5.28;;;;;;;19.64;100.00;96841.09;5076787;28;20433;-57
2024/03/30 11:28:29;;;;;;;25.88;3.80;;;;;;;19.67;100.00;96842.44;5068582;28;20033;-57